Time,TemperatureF,DewpointF,PressureIn,WindDirection,WindDirectionDegrees,WindSpeedMPH,WindSpeedGustMPH,Humidity,HourlyPrecipIn,Conditions,Clouds,dailyrainin,SoftwareType,DateUTC
2013-08-11 00:02:00,84.0,-99.9,30.07,SSE,158,11.0,13.0,-999,-99.99,,,-99.99,,2013-08-11 05:02:00,
2013-08-11 00:21:00,84.0,-99.9,30.07,SSE,158,10.0,14.0,-999,-99.99,,,-99.99,,2013-08-11 05:21:00,
2013-08-11 00:38:00,84.0,-99.9,30.08,SE,145,10.0,11.0,-999,-99.99,,,-99.99,,2013-08-11 05:38:00,
2013-08-11 01:05:00,84.0,-99.9,30.07,SSE,156,12.0,14.0,-999,-99.99,,,-99.99,,2013-08-11 06:05:00,
2013-08-11 01:27:00,84.0,-99.9,30.07,SSE,155,10.0,13.0,-999,-99.99,,,-99.99,,2013-08-11 06:27:00,
2013-08-11 01:38:00,84.0,-99.9,30.07,SSE,164,11.0,15.0,-999,-99.99,,,-99.99,,2013-08-11 06:38:00,
2013-08-11 01:49:00,84.0,-99.9,30.07,SSE,163,11.0,12.0,-999,-99.99,,,-99.99,,2013-08-11 06:49:00,
2013-08-11 01:58:00,84.0,-99.9,30.07,SSE,152,10.0,12.0,-999,-99.99,,,-99.99,,2013-08-11 06:58:00,
2013-08-11 02:07:00,84.0,-99.9,30.07,SSE,161,11.0,14.0,-999,-99.99,,,-99.99,,2013-08-11 07:07:00,
2013-08-11 02:17:00,84.0,-99.9,30.06,SSE,164,12.0,15.0,-999,-99.99,,,-99.99,,2013-08-11 07:17:00,
2013-08-11 02:38:00,84.0,-99.9,30.06,SSE,155,12.0,15.0,-999,-99.99,,,-99.99,,2013-08-11 07:38:00,
2013-08-11 02:47:00,84.0,-99.9,30.06,SSE,149,9.0,14.0,-999,-99.99,,,-99.99,,2013-08-11 07:47:00,
2013-08-11 02:56:00,84.0,-99.9,30.07,North,-999,-999.0,-999.0,-999,-99.99,,,-99.99,,2013-08-11 07:56:00,
2013-08-11 03:12:00,84.0,-99.9,30.07,SSE,155,9.0,11.0,-999,-99.99,,,-99.99,,2013-08-11 08:12:00,
2013-08-11 03:20:00,84.0,-99.9,30.06,SSE,152,9.0,11.0,-999,-99.99,,,-99.99,,2013-08-11 08:20:00,
2013-08-11 03:27:00,84.0,-99.9,30.07,North,-999,-999.0,-999.0,-999,-99.99,,,-99.99,,2013-08-11 08:27:00,
2013-08-11 03:37:00,84.0,-99.9,30.07,SE,141,8.0,11.0,-999,-99.99,,,-99.99,,2013-08-11 08:37:00,
2013-08-11 03:49:00,84.0,-99.9,30.07,ESE,119,6.0,7.0,-999,-99.99,,,-99.99,,2013-08-11 08:49:00,
2013-08-11 03:59:00,84.0,-99.9,30.07,SSE,155,6.0,9.0,-999,-99.99,,,-99.99,,2013-08-11 08:59:00,
2013-08-11 04:10:00,84.0,-99.9,30.06,SSE,168,8.0,10.0,-999,-99.99,,,-99.99,,2013-08-11 09:10:00,
2013-08-11 04:17:00,84.0,-99.9,30.06,SE,131,14.0,18.0,-999,-99.99,,,-99.99,,2013-08-11 09:17:00,
2013-08-11 04:30:00,82.0,-99.9,30.07,North,-999,-999.0,-999.0,-999,-99.99,,,-99.99,,2013-08-11 09:30:00,
2013-08-11 04:45:00,81.0,-99.9,30.07,ESE,114,5.0,6.0,-999,-99.99,,,-99.99,,2013-08-11 09:45:00,
2013-08-11 05:02:00,81.0,-99.9,30.07,ESE,105,5.0,6.0,-999,-99.99,,,-99.99,,2013-08-11 10:02:00,
2013-08-11 05:07:00,81.0,-99.9,30.07,East,100,4.0,5.0,-999,-99.99,,,-99.99,,2013-08-11 10:07:00,
2013-08-11 05:15:00,81.0,-99.9,30.07,East,98,5.0,7.0,-999,-99.99,,,-99.99,,2013-08-11 10:15:00,
2013-08-11 05:29:00,80.0,-99.9,30.07,ENE,71,5.0,6.0,-999,-99.99,,,-99.99,,2013-08-11 10:29:00,
2013-08-11 05:38:00,80.0,-99.9,30.07,ENE,58,4.0,5.0,-999,-99.99,,,-99.99,,2013-08-11 10:38:00,
2013-08-11 05:47:00,81.0,-99.9,30.07,North,-999,-999.0,-999.0,-999,-99.99,,,-99.99,,2013-08-11 10:47:00,
2013-08-11 06:07:00,83.0,-99.9,30.08,SE,142,7.0,9.0,-999,-99.99,,,-99.99,,2013-08-11 11:07:00,
2013-08-11 06:17:00,84.0,-99.9,30.07,SSE,150,7.0,8.0,-999,-99.99,,,-99.99,,2013-08-11 11:17:00,
2013-08-11 06:24:00,84.0,-99.9,30.07,North,-999,-999.0,-999.0,-999,-99.99,,,-99.99,,2013-08-11 11:24:00,
2013-08-11 06:40:00,83.0,-99.9,30.08,SE,129,5.0,6.0,-999,-99.99,,,-99.99,,2013-08-11 11:40:00,
2013-08-11 06:50:00,83.0,-99.9,30.08,SE,133,6.0,8.0,-999,-99.99,,,-99.99,,2013-08-11 11:50:00,
2013-08-11 07:01:00,83.0,-99.9,30.08,SE,136,5.0,8.0,-999,-99.99,,,-99.99,,2013-08-11 12:01:00,
2013-08-11 07:07:00,83.0,-99.9,30.09,ENE,59,3.0,4.0,-999,-99.99,,,-99.99,,2013-08-11 12:07:00,
2013-08-11 07:16:00,82.0,-99.9,30.09,East,83,3.0,4.0,-999,-99.99,,,-99.99,,2013-08-11 12:16:00,
2013-08-11 07:31:00,84.0,-99.9,30.09,North,-999,-999.0,-999.0,-999,-99.99,,,-99.99,,2013-08-11 12:31:00,
2013-08-11 07:38:00,84.0,-99.9,30.10,SSE,148,7.0,9.0,-999,-99.99,,,-99.99,,2013-08-11 12:38:00,
2013-08-11 07:47:00,84.0,-99.9,30.10,SE,136,6.0,8.0,-999,-99.99,,,-99.99,,2013-08-11 12:47:00,
2013-08-11 07:56:00,84.0,-99.9,30.10,SSE,148,7.0,9.0,-999,-99.99,,,-99.99,,2013-08-11 12:56:00,
2013-08-11 08:07:00,85.0,-99.9,30.10,SE,141,7.0,9.0,-999,-99.99,,,-99.99,,2013-08-11 13:07:00,
2013-08-11 08:17:00,85.0,-99.9,30.11,North,-999,-999.0,-999.0,-999,-99.99,,,-99.99,,2013-08-11 13:17:00,
2013-08-11 08:27:00,85.0,-99.9,30.11,North,-999,-999.0,-999.0,-999,-99.99,,,-99.99,,2013-08-11 13:27:00,
2013-08-11 08:41:00,85.0,-99.9,30.11,SSE,148,6.0,8.0,-999,-99.99,,,-99.99,,2013-08-11 13:41:00,
2013-08-11 08:49:00,85.0,-99.9,30.11,SE,141,6.0,9.0,-999,-99.99,,,-99.99,,2013-08-11 13:49:00,
2013-08-11 08:58:00,86.0,-99.9,30.11,North,-999,-999.0,-999.0,-999,-99.99,,,-99.99,,2013-08-11 13:58:00,
2013-08-11 09:06:00,85.0,-99.9,30.11,SE,143,7.0,10.0,-999,-99.99,,,-99.99,,2013-08-11 14:06:00,
2013-08-11 09:25:00,85.0,-99.9,30.12,North,-999,-999.0,-999.0,-999,-99.99,,,-99.99,,2013-08-11 14:25:00,
2013-08-11 09:37:00,85.0,-99.9,30.12,SE,146,8.0,12.0,-999,-99.99,,,-99.99,,2013-08-11 14:37:00,
2013-08-11 09:57:00,85.0,-99.9,30.12,North,-999,-999.0,-999.0,-999,-99.99,,,-99.99,,2013-08-11 14:57:00,
2013-08-11 10:08:00,86.0,-99.9,30.12,SE,145,9.0,12.0,-999,-99.99,,,-99.99,,2013-08-11 15:08:00,
2013-08-11 10:24:00,86.0,-99.9,30.12,SE,138,10.0,13.0,-999,-99.99,,,-99.99,,2013-08-11 15:24:00,
2013-08-11 10:49:00,86.0,-99.9,30.12,SE,128,9.0,13.0,-999,-99.99,,,-99.99,,2013-08-11 15:49:00,
2013-08-11 11:01:00,86.0,-99.9,30.13,North,-999,-999.0,-999.0,-999,-99.99,,,-99.99,,2013-08-11 16:01:00,
2013-08-11 11:12:00,86.0,-99.9,30.13,SE,138,9.0,13.0,-999,-99.99,,,-99.99,,2013-08-11 16:12:00,
2013-08-11 11:29:00,86.0,-99.9,30.13,North,-999,-999.0,-999.0,-999,-99.99,,,-99.99,,2013-08-11 16:29:00,
2013-08-11 11:41:00,85.0,-99.9,30.12,SE,139,10.0,13.0,-999,-99.99,,,-99.99,,2013-08-11 16:41:00,
2013-08-11 11:47:00,86.0,-99.9,30.12,SSE,149,11.0,14.0,-999,-99.99,,,-99.99,,2013-08-11 16:47:00,
2013-08-11 12:00:00,86.0,-99.9,30.12,SSE,154,10.0,13.0,-999,-99.99,,,-99.99,,2013-08-11 17:00:00,
2013-08-11 12:09:00,86.0,-99.9,30.12,SE,143,10.0,14.0,-999,-99.99,,,-99.99,,2013-08-11 17:09:00,
2013-08-11 12:15:00,86.0,-99.9,30.12,SSE,165,11.0,13.0,-999,-99.99,,,-99.99,,2013-08-11 17:15:00,
2013-08-11 12:27:00,86.0,-99.9,30.11,North,-999,-999.0,-999.0,-999,-99.99,,,-99.99,,2013-08-11 17:27:00,
2013-08-11 12:38:00,86.0,-99.9,30.11,SSE,150,9.0,13.0,-999,-99.99,,,-99.99,,2013-08-11 17:38:00,
2013-08-11 12:48:00,86.0,-99.9,30.11,SSE,157,11.0,12.0,-999,-99.99,,,-99.99,,2013-08-11 17:48:00,
2013-08-11 13:19:00,86.0,-99.9,30.11,SSE,147,12.0,15.0,-999,-99.99,,,-99.99,,2013-08-11 18:19:00,
2013-08-11 13:41:00,86.0,-99.9,30.11,SE,139,10.0,15.0,-999,-99.99,,,-99.99,,2013-08-11 18:41:00,
2013-08-11 13:50:00,86.0,-99.9,30.11,SSE,147,11.0,15.0,-999,-99.99,,,-99.99,,2013-08-11 18:50:00,
2013-08-11 13:58:00,87.0,-99.9,30.11,North,-999,-999.0,-999.0,-999,-99.99,,,-99.99,,2013-08-11 18:58:00,
2013-08-11 14:16:00,87.0,-99.9,30.10,South,173,9.0,10.0,-999,-99.99,,,-99.99,,2013-08-11 19:16:00,
2013-08-11 14:27:00,86.0,-99.9,30.10,SSE,155,10.0,11.0,-999,-99.99,,,-99.99,,2013-08-11 19:27:00,
2013-08-11 14:35:00,86.0,-99.9,30.10,SSE,150,9.0,12.0,-999,-99.99,,,-99.99,,2013-08-11 19:35:00,
2013-08-11 14:51:00,86.0,-99.9,30.10,North,-999,-999.0,-999.0,-999,-99.99,,,-99.99,,2013-08-11 19:51:00,
2013-08-11 15:00:00,87.0,-99.9,30.10,North,-999,-999.0,-999.0,-999,-99.99,,,-99.99,,2013-08-11 20:00:00,
2013-08-11 15:08:00,87.0,-99.9,30.09,SSE,155,10.0,12.0,-999,-99.99,,,-99.99,,2013-08-11 20:08:00,
2013-08-11 15:20:00,87.0,-99.9,30.09,SSE,152,12.0,14.0,-999,-99.99,,,-99.99,,2013-08-11 20:20:00,
2013-08-11 15:28:00,87.0,-99.9,30.09,North,-999,-999.0,-999.0,-999,-99.99,,,-99.99,,2013-08-11 20:28:00,
2013-08-11 15:40:00,87.0,-99.9,30.09,SSE,160,13.0,16.0,-999,-99.99,,,-99.99,,2013-08-11 20:40:00,
2013-08-11 15:50:00,87.0,-99.9,30.09,SSE,166,13.0,15.0,-999,-99.99,,,-99.99,,2013-08-11 20:50:00,
2013-08-11 16:08:00,87.0,-99.9,30.08,SSE,161,12.0,14.0,-999,-99.99,,,-99.99,,2013-08-11 21:08:00,
2013-08-11 16:14:00,87.0,-99.9,30.07,South,173,11.0,14.0,-999,-99.99,,,-99.99,,2013-08-11 21:14:00,
2013-08-11 16:37:00,87.0,-99.9,30.08,SSE,161,16.0,19.0,-999,-99.99,,,-99.99,,2013-08-11 21:37:00,
2013-08-11 16:50:00,87.0,-99.9,30.08,SSE,163,12.0,15.0,-999,-99.99,,,-99.99,,2013-08-11 21:50:00,
2013-08-11 16:59:00,86.0,-99.9,30.08,North,-999,-999.0,-999.0,-999,-99.99,,,-99.99,,2013-08-11 21:59:00,
2013-08-11 17:05:00,86.0,-99.9,30.08,SSE,161,12.0,15.0,-999,-99.99,,,-99.99,,2013-08-11 22:05:00,
2013-08-11 17:17:00,85.0,-99.9,30.08,SE,145,14.0,18.0,-999,-99.99,,,-99.99,,2013-08-11 22:17:00,
2013-08-11 17:37:00,85.0,-99.9,30.08,SSE,164,14.0,17.0,-999,-99.99,,,-99.99,,2013-08-11 22:37:00,
2013-08-11 17:48:00,85.0,-99.9,30.08,SSE,148,12.0,13.0,-999,-99.99,,,-99.99,,2013-08-11 22:48:00,
2013-08-11 17:59:00,86.0,-99.9,30.08,SSE,152,11.0,15.0,-999,-99.99,,,-99.99,,2013-08-11 22:59:00,
2013-08-11 18:07:00,86.0,-99.9,30.08,SSE,157,11.0,15.0,-999,-99.99,,,-99.99,,2013-08-11 23:07:00,
2013-08-11 18:18:00,85.0,-99.9,30.08,SE,145,11.0,15.0,-999,-99.99,,,-99.99,,2013-08-11 23:18:00,
2013-08-11 18:30:00,86.0,-99.9,30.08,SSE,149,14.0,17.0,-999,-99.99,,,-99.99,,2013-08-11 23:30:00,
2013-08-11 18:38:00,86.0,-99.9,30.08,SE,146,12.0,16.0,-999,-99.99,,,-99.99,,2013-08-11 23:38:00,
2013-08-11 18:50:00,86.0,-99.9,30.08,SSE,161,15.0,19.0,-999,-99.99,,,-99.99,,2013-08-11 23:50:00,
2013-08-11 18:59:00,85.0,-99.9,30.08,SSE,158,15.0,19.0,-999,-99.99,,,-99.99,,2013-08-11 23:59:00,
2013-08-11 19:18:00,85.0,-99.9,30.08,SSE,166,15.0,21.0,-999,-99.99,,,-99.99,,2013-08-12 00:18:00,
2013-08-11 19:26:00,85.0,-99.9,30.08,North,-999,-999.0,-999.0,-999,-99.99,,,-99.99,,2013-08-12 00:26:00,
2013-08-11 19:38:00,85.0,-99.9,30.08,South,169,12.0,14.0,-999,-99.99,,,-99.99,,2013-08-12 00:38:00,
2013-08-11 19:53:00,85.0,-99.9,30.08,North,-999,-999.0,-999.0,-999,-99.99,,,-99.99,,2013-08-12 00:53:00,
2013-08-11 19:59:00,85.0,-99.9,30.08,North,-999,-999.0,-999.0,-999,-99.99,,,-99.99,,2013-08-12 00:59:00,
2013-08-11 20:08:00,85.0,-99.9,30.08,SSE,158,11.0,15.0,-999,-99.99,,,-99.99,,2013-08-12 01:08:00,
2013-08-11 20:26:00,85.0,-99.9,30.07,SSE,165,11.0,14.0,-999,-99.99,,,-99.99,,2013-08-12 01:26:00,
2013-08-11 20:40:00,85.0,-99.9,30.08,SE,143,10.0,12.0,-999,-99.99,,,-99.99,,2013-08-12 01:40:00,
2013-08-11 20:48:00,84.0,-99.9,30.09,SSE,162,9.0,11.0,-999,-99.99,,,-99.99,,2013-08-12 01:48:00,
2013-08-11 20:58:00,85.0,-99.9,30.10,North,-999,-999.0,-999.0,-999,-99.99,,,-99.99,,2013-08-12 01:58:00,
2013-08-11 21:09:00,85.0,-99.9,30.10,SSE,155,11.0,14.0,-999,-99.99,,,-99.99,,2013-08-12 02:09:00,
2013-08-11 21:16:00,85.0,-99.9,30.11,SSE,149,12.0,15.0,-999,-99.99,,,-99.99,,2013-08-12 02:16:00,
2013-08-11 21:25:00,84.0,-99.9,30.11,North,-999,-999.0,-999.0,-999,-99.99,,,-99.99,,2013-08-12 02:25:00,
2013-08-11 21:37:00,84.0,-99.9,30.11,SSE,148,11.0,14.0,-999,-99.99,,,-99.99,,2013-08-12 02:37:00,
2013-08-11 21:50:00,84.0,-99.9,30.12,SSE,150,9.0,12.0,-999,-99.99,,,-99.99,,2013-08-12 02:50:00,
2013-08-11 22:00:00,84.0,-99.9,30.12,SSE,155,10.0,13.0,-999,-99.99,,,-99.99,,2013-08-12 03:00:00,
2013-08-11 22:10:00,84.0,-99.9,30.12,SSE,153,10.0,12.0,-999,-99.99,,,-99.99,,2013-08-12 03:10:00,
2013-08-11 22:16:00,85.0,-99.9,30.12,South,170,10.0,12.0,-999,-99.99,,,-99.99,,2013-08-12 03:16:00,
2013-08-11 22:25:00,84.0,-99.9,30.11,North,-999,-999.0,-999.0,-999,-99.99,,,-99.99,,2013-08-12 03:25:00,
2013-08-11 22:39:00,84.0,-99.9,30.11,SSE,165,10.0,12.0,-999,-99.99,,,-99.99,,2013-08-12 03:39:00,
2013-08-11 22:48:00,84.0,-99.9,30.11,South,173,9.0,12.0,-999,-99.99,,,-99.99,,2013-08-12 03:48:00,
2013-08-11 23:02:00,84.0,-99.9,30.10,South,169,9.0,10.0,-999,-99.99,,,-99.99,,2013-08-12 04:02:00,
2013-08-11 23:12:00,84.0,-99.9,30.11,South,169,7.0,10.0,-999,-99.99,,,-99.99,,2013-08-12 04:12:00,
2013-08-11 23:22:00,84.0,-99.9,30.10,North,-999,-999.0,-999.0,-999,-99.99,,,-99.99,,2013-08-12 04:22:00,
2013-08-11 23:33:00,84.0,-99.9,30.10,SSE,165,10.0,11.0,-999,-99.99,,,-99.99,,2013-08-12 04:33:00,
2013-08-11 23:43:00,84.0,-99.9,30.10,SSE,167,11.0,14.0,-999,-99.99,,,-99.99,,2013-08-12 04:43:00,
2013-08-11 23:52:00,84.0,-99.9,30.10,South,169,12.0,15.0,-999,-99.99,,,-99.99,,2013-08-12 04:52:00,